sensor_id;sensor_type;location;lat;lon;timestamp;pressure;altitude;pressure_sealevel;temperature;humidity
73085;BME280;62974;49.460;10.892;2023-01-24T00:01:29;99354.81;;;0.37;100.00
73085;BME280;62974;49.460;10.892;2023-01-24T00:03:57;99363.72;;;0.49;100.00
73085;BME280;62974;49.460;10.892;2023-01-24T00:06:25;99354.72;;;0.39;100.00
73085;BME280;62974;49.460;10.892;2023-01-24T00:08:52;99355.66;;;0.65;100.00
73085;BME280;62974;49.460;10.892;2023-01-24T00:11:20;99355.28;;;0.71;100.00
73085;BME280;62974;49.460;10.892;2023-01-24T00:13:47;99361.41;;;0.71;99.49
73085;BME280;62974;49.460;10.892;2023-01-24T00:16:18;99357.28;;;0.26;100.00
73085;BME280;62974;49.460;10.892;2023-01-24T00:18:47;99363.78;;;0.21;100.00
73085;BME280;62974;49.460;10.892;2023-01-24T00:21:17;99368.94;;;0.51;100.00
73085;BME280;62974;49.460;10.892;2023-01-24T00:23:46;99368.66;;;0.41;100.00
73085;BME280;62974;49.460;10.892;2023-01-24T00:26:15;99377.22;;;0.18;100.00
73085;BME280;62974;49.460;10.892;2023-01-24T00:28:43;99365.38;;;0.37;100.00
73085;BME280;62974;49.460;10.892;2023-01-24T00:31:11;99365.22;;;0.26;100.00
73085;BME280;62974;49.460;10.892;2023-01-24T00:33:40;99366.28;;;0.24;100.00
73085;BME280;62974;49.460;10.892;2023-01-24T00:36:08;99366.34;;;0.22;100.00
73085;BME280;62974;49.460;10.892;2023-01-24T00:38:36;99367.78;;;0.28;100.00
73085;BME280;62974;49.460;10.892;2023-01-24T00:41:04;99369.09;;;0.21;100.00
73085;BME280;62974;49.460;10.892;2023-01-24T00:43:31;99370.28;;;0.43;100.00
73085;BME280;62974;49.460;10.892;2023-01-24T00:45:59;99371.72;;;0.35;100.00
73085;BME280;62974;49.460;10.892;2023-01-24T00:48:27;99373.28;;;0.52;100.00
73085;BME280;62974;49.460;10.892;2023-01-24T00:50:56;99378.38;;;0.40;100.00
73085;BME280;62974;49.460;10.892;2023-01-24T00:53:23;99372.09;;;0.29;100.00
73085;BME280;62974;49.460;10.892;2023-01-24T00:55:52;99372.75;;;0.32;100.00
73085;BME280;62974;49.460;10.892;2023-01-24T00:58:21;99366.97;;;0.40;100.00
73085;BME280;62974;49.460;10.892;2023-01-24T01:00:48;99371.78;;;0.47;100.00
73085;BME280;62974;49.460;10.892;2023-01-24T01:03:17;99376.16;;;0.34;100.00
73085;BME280;62974;49.460;10.892;2023-01-24T01:05:46;99370.38;;;0.42;100.00
73085;BME280;62974;49.460;10.892;2023-01-24T01:08:15;99377.66;;;0.65;100.00
73085;BME280;62974;49.460;10.892;2023-01-24T01:10:43;99372.41;;;0.78;100.00
73085;BME280;62974;49.460;10.892;2023-01-24T01:13:12;99384.66;;;0.52;100.00
73085;BME280;62974;49.460;10.892;2023-01-24T01:15:40;99379.78;;;0.73;100.00
73085;BME280;62974;49.460;10.892;2023-01-24T01:18:07;99374.03;;;0.93;100.00
73085;BME280;62974;49.460;10.892;2023-01-24T01:20:35;99389.50;;;0.72;100.00
73085;BME280;62974;49.460;10.892;2023-01-24T01:23:03;99385.38;;;0.68;100.00
73085;BME280;62974;49.460;10.892;2023-01-24T01:25:32;99385.56;;;0.79;100.00
73085;BME280;62974;49.460;10.892;2023-01-24T01:27:59;99390.50;;;0.71;100.00
73085;BME280;62974;49.460;10.892;2023-01-24T01:30:27;99387.03;;;0.83;100.00
73085;BME280;62974;49.460;10.892;2023-01-24T01:32:54;99396.72;;;0.70;100.00
73085;BME280;62974;49.460;10.892;2023-01-24T01:35:22;99389.97;;;0.79;100.00
73085;BME280;62974;49.460;10.892;2023-01-24T01:37:49;99394.06;;;0.70;100.00
73085;BME280;62974;49.460;10.892;2023-01-24T01:40:17;99392.56;;;0.66;100.00
73085;BME280;62974;49.460;10.892;2023-01-24T01:42:50;99400.22;;;0.71;100.00
73085;BME280;62974;49.460;10.892;2023-01-24T01:45:37;99401.16;;;0.70;100.00
73085;BME280;62974;49.460;10.892;2023-01-24T01:48:13;99398.66;;;0.81;100.00
73085;BME280;62974;49.460;10.892;2023-01-24T01:50:44;99414.66;;;0.92;100.00
73085;BME280;62974;49.460;10.892;2023-01-24T01:53:14;99405.72;;;0.80;100.00
73085;BME280;62974;49.460;10.892;2023-01-24T01:55:46;99416.59;;;0.76;100.00
73085;BME280;62974;49.460;10.892;2023-01-24T01:58:17;99418.09;;;0.80;100.00
73085;BME280;62974;49.460;10.892;2023-01-24T02:00:46;99422.09;;;0.73;100.00
73085;BME280;62974;49.460;10.892;2023-01-24T02:03:19;99409.22;;;0.81;100.00
73085;BME280;62974;49.460;10.892;2023-01-24T02:06:15;99415.22;;;0.70;100.00
73085;BME280;62974;49.460;10.892;2023-01-24T02:08:43;99408.50;;;0.79;100.00
73085;BME280;62974;49.460;10.892;2023-01-24T02:11:11;99401.22;;;0.68;100.00
73085;BME280;62974;49.460;10.892;2023-01-24T02:14:17;99409.28;;;0.67;100.00
73085;BME280;62974;49.460;10.892;2023-01-24T02:17:03;99420.78;;;0.66;100.00
73085;BME280;62974;49.460;10.892;2023-01-24T02:20:00;99406.44;;;0.70;100.00
73085;BME280;62974;49.460;10.892;2023-01-24T02:22:38;99419.44;;;0.73;100.00
73085;BME280;62974;49.460;10.892;2023-01-24T02:25:12;99420.22;;;0.75;100.00
73085;BME280;62974;49.460;10.892;2023-01-24T02:27:42;99415.00;;;0.73;100.00
73085;BME280;62974;49.460;10.892;2023-01-24T02:30:10;99415.72;;;0.63;100.00
73085;BME280;62974;49.460;10.892;2023-01-24T02:32:38;99412.56;;;0.70;100.00
73085;BME280;62974;49.460;10.892;2023-01-24T02:35:06;99409.72;;;0.73;100.00
73085;BME280;62974;49.460;10.892;2023-01-24T02:37:35;99410.97;;;0.68;100.00
73085;BME280;62974;49.460;10.892;2023-01-24T02:40:07;99411.44;;;0.60;100.00
73085;BME280;62974;49.460;10.892;2023-01-24T02:42:38;99419.22;;;0.63;100.00
73085;BME280;62974;49.460;10.892;2023-01-24T02:45:10;99415.91;;;0.60;100.00
73085;BME280;62974;49.460;10.892;2023-01-24T02:47:45;99421.00;;;0.63;100.00
73085;BME280;62974;49.460;10.892;2023-01-24T02:50:14;99421.94;;;0.62;100.00
73085;BME280;62974;49.460;10.892;2023-01-24T02:52:41;99427.31;;;0.60;100.00
73085;BME280;62974;49.460;10.892;2023-01-24T02:55:33;99428.44;;;0.70;100.00
73085;BME280;62974;49.460;10.892;2023-01-24T02:58:21;99432.22;;;0.66;100.00
73085;BME280;62974;49.460;10.892;2023-01-24T03:00:48;99427.78;;;0.67;100.00
73085;BME280;62974;49.460;10.892;2023-01-24T03:03:16;99439.09;;;0.69;100.00
73085;BME280;62974;49.460;10.892;2023-01-24T03:05:43;99438.88;;;0.72;100.00
73085;BME280;62974;49.460;10.892;2023-01-24T03:08:23;99431.09;;;0.56;100.00
73085;BME280;62974;49.460;10.892;2023-01-24T03:10:51;99429.56;;;0.66;100.00
73085;BME280;62974;49.460;10.892;2023-01-24T03:13:19;99426.66;;;0.71;100.00
73085;BME280;62974;49.460;10.892;2023-01-24T03:16:07;99431.16;;;0.69;100.00
73085;BME280;62974;49.460;10.892;2023-01-24T03:18:52;99427.66;;;0.68;100.00
73085;BME280;62974;49.460;10.892;2023-01-24T03:21:38;99432.09;;;0.68;100.00
73085;BME280;62974;49.460;10.892;2023-01-24T03:24:24;99425.06;;;0.54;100.00
73085;BME280;62974;49.460;10.892;2023-01-24T03:27:09;99428.78;;;0.52;100.00
73085;BME280;62974;49.460;10.892;2023-01-24T03:29:54;99425.00;;;0.56;100.00
73085;BME280;62974;49.460;10.892;2023-01-24T03:32:41;99428.84;;;0.50;100.00
73085;BME280;62974;49.460;10.892;2023-01-24T03:35:27;99435.84;;;0.51;100.00
73085;BME280;62974;49.460;10.892;2023-01-24T03:37:54;99432.59;;;0.60;100.00
73085;BME280;62974;49.460;10.892;2023-01-24T03:40:40;99435.25;;;0.60;100.00
73085;BME280;62974;49.460;10.892;2023-01-24T03:43:07;99434.09;;;0.64;100.00
73085;BME280;62974;49.460;10.892;2023-01-24T03:45:37;99426.66;;;0.57;100.00
73085;BME280;62974;49.460;10.892;2023-01-24T03:48:07;99427.13;;;0.63;100.00
73085;BME280;62974;49.460;10.892;2023-01-24T03:50:40;99431.00;;;0.58;100.00
73085;BME280;62974;49.460;10.892;2023-01-24T03:53:28;99434.13;;;0.50;100.00
73085;BME280;62974;49.460;10.892;2023-01-24T03:55:57;99435.56;;;0.41;100.00
73085;BME280;62974;49.460;10.892;2023-01-24T03:58:26;99426.50;;;0.45;100.00
73085;BME280;62974;49.460;10.892;2023-01-24T04:00:54;99431.78;;;0.45;100.00
73085;BME280;62974;49.460;10.892;2023-01-24T04:03:23;99431.22;;;0.40;100.00
73085;BME280;62974;49.460;10.892;2023-01-24T04:05:51;99426.00;;;0.53;100.00
73085;BME280;62974;49.460;10.892;2023-01-24T04:08:19;99421.50;;;0.55;100.00
73085;BME280;62974;49.460;10.892;2023-01-24T04:10:46;99426.88;;;0.54;100.00
73085;BME280;62974;49.460;10.892;2023-01-24T04:13:14;99418.28;;;0.50;100.00
73085;BME280;62974;49.460;10.892;2023-01-24T04:15:41;99422.28;;;0.43;100.00
73085;BME280;62974;49.460;10.892;2023-01-24T04:18:09;99422.50;;;0.53;100.00
73085;BME280;62974;49.460;10.892;2023-01-24T04:20:39;99419.78;;;0.40;100.00
73085;BME280;62974;49.460;10.892;2023-01-24T04:23:07;99417.16;;;0.40;100.00
73085;BME280;62974;49.460;10.892;2023-01-24T04:25:35;99415.38;;;0.40;100.00
73085;BME280;62974;49.460;10.892;2023-01-24T04:28:03;99404.72;;;0.42;100.00
73085;BME280;62974;49.460;10.892;2023-01-24T04:30:31;99406.94;;;0.62;100.00
73085;BME280;62974;49.460;10.892;2023-01-24T04:32:58;99407.56;;;0.39;100.00
73085;BME280;62974;49.460;10.892;2023-01-24T04:35:28;99407.63;;;0.37;100.00
73085;BME280;62974;49.460;10.892;2023-01-24T04:38:01;99406.78;;;0.37;100.00
73085;BME280;62974;49.460;10.892;2023-01-24T04:40:28;99404.34;;;0.34;100.00
73085;BME280;62974;49.460;10.892;2023-01-24T04:42:56;99405.94;;;0.36;100.00
73085;BME280;62974;49.460;10.892;2023-01-24T04:45:24;99405.00;;;0.37;100.00
73085;BME280;62974;49.460;10.892;2023-01-24T04:47:53;99402.94;;;0.42;100.00
73085;BME280;62974;49.460;10.892;2023-01-24T04:50:20;99403.22;;;0.38;100.00
73085;BME280;62974;49.460;10.892;2023-01-24T04:52:48;99406.72;;;0.38;100.00
73085;BME280;62974;49.460;10.892;2023-01-24T04:55:17;99410.50;;;0.34;100.00
73085;BME280;62974;49.460;10.892;2023-01-24T04:57:44;99411.84;;;0.54;100.00
73085;BME280;62974;49.460;10.892;2023-01-24T05:00:12;99423.00;;;0.45;100.00
73085;BME280;62974;49.460;10.892;2023-01-24T05:02:40;99421.63;;;0.39;100.00
73085;BME280;62974;49.460;10.892;2023-01-24T05:05:08;99418.66;;;0.44;100.00
73085;BME280;62974;49.460;10.892;2023-01-24T05:07:35;99416.28;;;0.54;100.00
73085;BME280;62974;49.460;10.892;2023-01-24T05:10:04;99415.84;;;0.47;100.00
73085;BME280;62974;49.460;10.892;2023-01-24T05:12:33;99420.66;;;0.40;100.00
73085;BME280;62974;49.460;10.892;2023-01-24T05:15:00;99418.50;;;0.33;100.00
73085;BME280;62974;49.460;10.892;2023-01-24T05:17:28;99425.06;;;0.54;100.00
73085;BME280;62974;49.460;10.892;2023-01-24T05:19:55;99424.78;;;0.59;100.00
73085;BME280;62974;49.460;10.892;2023-01-24T05:22:22;99422.91;;;0.46;100.00
73085;BME280;62974;49.460;10.892;2023-01-24T05:24:50;99427.31;;;0.60;100.00
73085;BME280;62974;49.460;10.892;2023-01-24T05:27:17;99416.38;;;0.52;99.49
73085;BME280;62974;49.460;10.892;2023-01-24T05:29:46;99421.06;;;0.75;99.75
73085;BME280;62974;49.460;10.892;2023-01-24T05:32:14;99417.88;;;0.56;100.00
73085;BME280;62974;49.460;10.892;2023-01-24T05:34:41;99420.84;;;0.52;99.86
73085;BME280;62974;49.460;10.892;2023-01-24T05:37:09;99422.63;;;0.51;100.00
73085;BME280;62974;49.460;10.892;2023-01-24T05:39:36;99424.50;;;0.49;99.72
73085;BME280;62974;49.460;10.892;2023-01-24T05:42:04;99424.50;;;0.63;100.00
73085;BME280;62974;49.460;10.892;2023-01-24T05:44:31;99427.81;;;0.53;99.75
73085;BME280;62974;49.460;10.892;2023-01-24T05:47:00;99445.66;;;0.49;99.90
73085;BME280;62974;49.460;10.892;2023-01-24T05:49:27;99441.63;;;0.43;99.93
73085;BME280;62974;49.460;10.892;2023-01-24T05:51:55;99437.72;;;0.49;99.85
73085;BME280;62974;49.460;10.892;2023-01-24T05:54:22;99437.44;;;0.54;99.85
73085;BME280;62974;49.460;10.892;2023-01-24T05:56:50;99431.66;;;0.61;99.33
73085;BME280;62974;49.460;10.892;2023-01-24T05:59:17;99445.00;;;0.60;98.90
73085;BME280;62974;49.460;10.892;2023-01-24T06:01:45;99447.63;;;0.45;99.70
73085;BME280;62974;49.460;10.892;2023-01-24T06:04:14;99456.69;;;0.56;99.59
73085;BME280;62974;49.460;10.892;2023-01-24T06:06:41;99459.50;;;0.67;99.36
73085;BME280;62974;49.460;10.892;2023-01-24T06:09:09;99455.16;;;0.66;99.25
73085;BME280;62974;49.460;10.892;2023-01-24T06:11:36;99454.50;;;0.62;98.87
73085;BME280;62974;49.460;10.892;2023-01-24T06:14:04;99465.94;;;0.48;99.56
73085;BME280;62974;49.460;10.892;2023-01-24T06:16:31;99467.56;;;0.51;99.77
73085;BME280;62974;49.460;10.892;2023-01-24T06:18:59;99467.44;;;0.53;99.80
73085;BME280;62974;49.460;10.892;2023-01-24T06:21:39;99470.84;;;0.55;98.92
73085;BME280;62974;49.460;10.892;2023-01-24T06:24:17;99470.00;;;0.54;99.30
73085;BME280;62974;49.460;10.892;2023-01-24T06:26:47;99469.22;;;0.66;99.26
73085;BME280;62974;49.460;10.892;2023-01-24T06:29:16;99472.66;;;0.54;99.23
73085;BME280;62974;49.460;10.892;2023-01-24T06:31:50;99469.91;;;0.56;99.48
73085;BME280;62974;49.460;10.892;2023-01-24T06:34:41;99480.94;;;0.62;98.87
73085;BME280;62974;49.460;10.892;2023-01-24T06:37:17;99480.94;;;0.62;98.73
73085;BME280;62974;49.460;10.892;2023-01-24T06:39:49;99484.97;;;0.82;98.54
73085;BME280;62974;49.460;10.892;2023-01-24T06:42:18;99493.66;;;0.70;98.41
73085;BME280;62974;49.460;10.892;2023-01-24T06:44:46;99492.25;;;0.64;98.40
73085;BME280;62974;49.460;10.892;2023-01-24T06:47:14;99488.28;;;0.71;98.56
73085;BME280;62974;49.460;10.892;2023-01-24T06:49:42;99488.53;;;0.81;97.52
73085;BME280;62974;49.460;10.892;2023-01-24T06:52:09;99482.63;;;0.63;98.52
73085;BME280;62974;49.460;10.892;2023-01-24T06:54:39;99487.16;;;0.61;98.70
73085;BME280;62974;49.460;10.892;2023-01-24T06:57:07;99492.56;;;0.60;98.86
73085;BME280;62974;49.460;10.892;2023-01-24T06:59:34;99495.19;;;0.60;98.96
73085;BME280;62974;49.460;10.892;2023-01-24T07:02:02;99496.50;;;0.67;99.16
73085;BME280;62974;49.460;10.892;2023-01-24T07:04:29;99504.81;;;0.61;98.80
73085;BME280;62974;49.460;10.892;2023-01-24T07:06:57;99500.00;;;0.67;98.87
73085;BME280;62974;49.460;10.892;2023-01-24T07:09:25;99494.44;;;0.58;98.62
73085;BME280;62974;49.460;10.892;2023-01-24T07:11:54;99492.97;;;0.80;98.50
73085;BME280;62974;49.460;10.892;2023-01-24T07:14:24;99497.53;;;0.64;98.45
73085;BME280;62974;49.460;10.892;2023-01-24T07:16:51;99498.47;;;0.77;98.97
73085;BME280;62974;49.460;10.892;2023-01-24T07:19:22;99499.59;;;0.73;98.52
73085;BME280;62974;49.460;10.892;2023-01-24T07:21:51;99504.25;;;0.70;98.43
73085;BME280;62974;49.460;10.892;2023-01-24T07:24:21;99501.66;;;0.82;98.71
73085;BME280;62974;49.460;10.892;2023-01-24T07:26:51;99510.66;;;0.66;98.57
73085;BME280;62974;49.460;10.892;2023-01-24T07:29:21;99519.91;;;0.73;98.41
73085;BME280;62974;49.460;10.892;2023-01-24T07:31:49;99511.13;;;0.72;98.37
73085;BME280;62974;49.460;10.892;2023-01-24T07:34:18;99516.22;;;0.75;98.05
73085;BME280;62974;49.460;10.892;2023-01-24T07:36:46;99514.41;;;0.76;98.12
73085;BME280;62974;49.460;10.892;2023-01-24T07:39:14;99509.44;;;0.71;98.52
73085;BME280;62974;49.460;10.892;2023-01-24T07:41:42;99515.25;;;0.76;98.76
73085;BME280;62974;49.460;10.892;2023-01-24T07:44:10;99519.44;;;0.66;98.98
73085;BME280;62974;49.460;10.892;2023-01-24T07:46:39;99519.03;;;0.72;98.94
73085;BME280;62974;49.460;10.892;2023-01-24T07:49:07;99522.53;;;0.87;98.64
73085;BME280;62974;49.460;10.892;2023-01-24T07:51:34;99526.34;;;1.10;98.27
73085;BME280;62974;49.460;10.892;2023-01-24T07:54:02;99525.56;;;0.81;97.99
73085;BME280;62974;49.460;10.892;2023-01-24T07:56:30;99539.34;;;0.86;98.46
73085;BME280;62974;49.460;10.892;2023-01-24T07:58:58;99530.34;;;0.88;98.56
73085;BME280;62974;49.460;10.892;2023-01-24T08:01:26;99535.00;;;0.85;98.42
73085;BME280;62974;49.460;10.892;2023-01-24T08:03:56;99536.41;;;0.90;98.46
73085;BME280;62974;49.460;10.892;2023-01-24T08:06:24;99544.44;;;0.89;98.49
73085;BME280;62974;49.460;10.892;2023-01-24T08:08:52;99544.41;;;1.03;97.86
73085;BME280;62974;49.460;10.892;2023-01-24T08:11:19;99547.63;;;0.94;98.21
73085;BME280;62974;49.460;10.892;2023-01-24T08:13:48;99552.84;;;0.96;98.15
73085;BME280;62974;49.460;10.892;2023-01-24T08:16:16;99550.56;;;0.89;97.79
73085;BME280;62974;49.460;10.892;2023-01-24T08:18:44;99551.63;;;0.87;98.14
73085;BME280;62974;49.460;10.892;2023-01-24T08:21:13;99554.06;;;0.90;98.21
73085;BME280;62974;49.460;10.892;2023-01-24T08:23:40;99555.47;;;0.96;98.36
73085;BME280;62974;49.460;10.892;2023-01-24T08:26:08;99550.00;;;0.99;97.52
73085;BME280;62974;49.460;10.892;2023-01-24T08:28:35;99554.81;;;0.92;97.68
73085;BME280;62974;49.460;10.892;2023-01-24T08:31:03;99565.94;;;0.97;97.81
73085;BME280;62974;49.460;10.892;2023-01-24T08:33:31;99570.78;;;0.90;97.79
73085;BME280;62974;49.460;10.892;2023-01-24T08:36:04;99564.16;;;0.98;97.40
73085;BME280;62974;49.460;10.892;2023-01-24T08:38:33;99565.84;;;0.99;97.72
73085;BME280;62974;49.460;10.892;2023-01-24T08:41:02;99571.44;;;0.94;97.49
73085;BME280;62974;49.460;10.892;2023-01-24T08:43:33;99572.09;;;0.98;97.76
73085;BME280;62974;49.460;10.892;2023-01-24T08:46:00;99576.03;;;1.05;97.64
73085;BME280;62974;49.460;10.892;2023-01-24T08:48:28;99581.03;;;1.09;97.48
73085;BME280;62974;49.460;10.892;2023-01-24T08:50:56;99581.31;;;1.05;97.33
73085;BME280;62974;49.460;10.892;2023-01-24T08:53:24;99587.09;;;1.11;97.30
73085;BME280;62974;49.460;10.892;2023-01-24T08:55:52;99580.34;;;1.20;97.16
73085;BME280;62974;49.460;10.892;2023-01-24T08:58:20;99583.59;;;1.11;97.61
73085;BME280;62974;49.460;10.892;2023-01-24T09:00:48;99584.34;;;1.13;97.68
73085;BME280;62974;49.460;10.892;2023-01-24T09:03:16;99595.19;;;1.08;97.47
73085;BME280;62974;49.460;10.892;2023-01-24T09:05:44;99584.44;;;1.11;97.73
73085;BME280;62974;49.460;10.892;2023-01-24T09:08:12;99589.28;;;1.31;97.46
73085;BME280;62974;49.460;10.892;2023-01-24T09:10:39;99589.75;;;1.11;97.18
73085;BME280;62974;49.460;10.892;2023-01-24T09:13:08;99594.25;;;1.09;97.78
73085;BME280;62974;49.460;10.892;2023-01-24T09:15:35;99585.00;;;1.16;97.57
73085;BME280;62974;49.460;10.892;2023-01-24T09:18:03;99580.53;;;1.17;97.71
73085;BME280;62974;49.460;10.892;2023-01-24T09:20:31;99580.34;;;1.20;97.72
73085;BME280;62974;49.460;10.892;2023-01-24T09:22:58;99587.34;;;1.21;97.06
73085;BME280;62974;49.460;10.892;2023-01-24T09:25:26;99595.84;;;1.26;98.04
73085;BME280;62974;49.460;10.892;2023-01-24T09:27:56;99585.63;;;1.20;97.53
73085;BME280;62974;49.460;10.892;2023-01-24T09:30:25;99587.25;;;1.22;97.16
73085;BME280;62974;49.460;10.892;2023-01-24T09:32:53;99587.69;;;1.29;97.23
73085;BME280;62974;49.460;10.892;2023-01-24T09:35:21;99591.28;;;1.28;97.05
73085;BME280;62974;49.460;10.892;2023-01-24T09:37:50;99597.44;;;1.28;97.11
73085;BME280;62974;49.460;10.892;2023-01-24T09:40:21;99595.91;;;1.38;97.75
73085;BME280;62974;49.460;10.892;2023-01-24T09:42:57;99592.91;;;1.30;96.86
73085;BME280;62974;49.460;10.892;2023-01-24T09:45:33;99599.50;;;1.37;96.71
73085;BME280;62974;49.460;10.892;2023-01-24T09:48:05;99593.25;;;1.38;97.03
73085;BME280;62974;49.460;10.892;2023-01-24T09:50:38;99592.63;;;1.35;97.28
73085;BME280;62974;49.460;10.892;2023-01-24T09:53:12;99597.78;;;1.36;97.21
73085;BME280;62974;49.460;10.892;2023-01-24T09:55:42;99589.56;;;1.41;97.49
73085;BME280;62974;49.460;10.892;2023-01-24T09:58:22;99586.88;;;1.55;97.20
73085;BME280;62974;49.460;10.892;2023-01-24T10:00:54;99590.56;;;1.53;97.10
73085;BME280;62974;49.460;10.892;2023-01-24T10:03:23;99594.06;;;1.53;96.51
73085;BME280;62974;49.460;10.892;2023-01-24T10:05:53;99596.78;;;1.52;96.38
73085;BME280;62974;49.460;10.892;2023-01-24T10:08:27;99589.81;;;1.51;96.56
73085;BME280;62974;49.460;10.892;2023-01-24T10:11:03;99590.97;;;1.47;96.82
73085;BME280;62974;49.460;10.892;2023-01-24T10:13:56;99588.22;;;1.48;96.53
73085;BME280;62974;49.460;10.892;2023-01-24T10:22:35;99588.72;;;1.40;96.59
73085;BME280;62974;49.460;10.892;2023-01-24T10:25:14;99594.56;;;1.46;96.88
73085;BME280;62974;49.460;10.892;2023-01-24T10:27:46;99589.53;;;1.55;96.73
73085;BME280;62974;49.460;10.892;2023-01-24T10:30:18;99589.28;;;1.46;96.42
73085;BME280;62974;49.460;10.892;2023-01-24T10:32:52;99579.75;;;1.56;96.88
73085;BME280;62974;49.460;10.892;2023-01-24T10:35:26;99595.00;;;1.52;96.56
73085;BME280;62974;49.460;10.892;2023-01-24T10:37:58;99591.72;;;1.49;97.06
73085;BME280;62974;49.460;10.892;2023-01-24T10:40:26;99586.78;;;1.57;96.92
73085;BME280;62974;49.460;10.892;2023-01-24T10:42:54;99578.75;;;1.58;97.13
73085;BME280;62974;49.460;10.892;2023-01-24T10:45:35;99577.69;;;1.61;96.56
73085;BME280;62974;49.460;10.892;2023-01-24T10:48:13;99575.53;;;1.53;96.29
73085;BME280;62974;49.460;10.892;2023-01-24T10:50:46;99570.59;;;1.61;96.70
73085;BME280;62974;49.460;10.892;2023-01-24T10:53:22;99574.38;;;1.57;96.06
73085;BME280;62974;49.460;10.892;2023-01-24T10:55:58;99574.38;;;1.57;97.11
73085;BME280;62974;49.460;10.892;2023-01-24T10:58:28;99576.22;;;1.69;97.06
73085;BME280;62974;49.460;10.892;2023-01-24T11:01:16;99572.50;;;1.72;96.20
73085;BME280;62974;49.460;10.892;2023-01-24T11:03:46;99579.09;;;1.66;96.76
73085;BME280;62974;49.460;10.892;2023-01-24T11:06:28;99578.22;;;1.66;96.46
73085;BME280;62974;49.460;10.892;2023-01-24T11:09:03;99571.66;;;1.59;97.18
73085;BME280;62974;49.460;10.892;2023-01-24T11:11:32;99568.66;;;1.51;97.05
73085;BME280;62974;49.460;10.892;2023-01-24T11:14:00;99568.16;;;1.58;97.50
73085;BME280;62974;49.460;10.892;2023-01-24T11:16:32;99566.03;;;1.63;96.90
73085;BME280;62974;49.460;10.892;2023-01-24T11:19:04;99561.75;;;1.75;96.81
73085;BME280;62974;49.460;10.892;2023-01-24T11:21:33;99558.63;;;1.68;96.82
73085;BME280;62974;49.460;10.892;2023-01-24T11:24:08;99564.72;;;1.56;96.62
73085;BME280;62974;49.460;10.892;2023-01-24T11:26:54;99561.78;;;1.61;96.39
73085;BME280;62974;49.460;10.892;2023-01-24T11:29:22;99560.59;;;1.52;97.03
73085;BME280;62974;49.460;10.892;2023-01-24T11:31:52;99559.34;;;1.58;97.37
73085;BME280;62974;49.460;10.892;2023-01-24T11:34:57;99553.25;;;1.70;97.02
73085;BME280;62974;49.460;10.892;2023-01-24T11:37:35;99546.56;;;1.64;97.20
73085;BME280;62974;49.460;10.892;2023-01-24T11:40:19;99546.84;;;1.60;96.58
73085;BME280;62974;49.460;10.892;2023-01-24T11:43:01;99536.38;;;1.58;96.47
73085;BME280;62974;49.460;10.892;2023-01-24T11:45:40;99543.91;;;1.64;96.04
73085;BME280;62974;49.460;10.892;2023-01-24T11:48:15;99541.16;;;1.66;96.37
73085;BME280;62974;49.460;10.892;2023-01-24T11:50:55;99535.75;;;1.67;96.44
73085;BME280;62974;49.460;10.892;2023-01-24T11:53:43;99530.38;;;1.69;96.47
73085;BME280;62974;49.460;10.892;2023-01-24T11:56:22;99527.16;;;1.64;96.70
73085;BME280;62974;49.460;10.892;2023-01-24T11:59:06;99534.41;;;1.74;96.90
73085;BME280;62974;49.460;10.892;2023-01-24T12:01:44;99531.88;;;1.85;96.92
73085;BME280;62974;49.460;10.892;2023-01-24T12:04:26;99531.97;;;1.84;96.34
73085;BME280;62974;49.460;10.892;2023-01-24T12:07:02;99530.72;;;1.89;96.59
73085;BME280;62974;49.460;10.892;2023-01-24T12:09:37;99531.66;;;1.88;95.79
73085;BME280;62974;49.460;10.892;2023-01-24T12:12:14;99532.53;;;1.89;95.99
73085;BME280;62974;49.460;10.892;2023-01-24T12:15:20;99524.66;;;1.87;96.54
73085;BME280;62974;49.460;10.892;2023-01-24T12:20:56;99523.41;;;1.80;95.73
73085;BME280;62974;49.460;10.892;2023-01-24T12:23:30;99521.03;;;1.63;96.91
73085;BME280;62974;49.460;10.892;2023-01-24T12:26:03;99525.50;;;1.75;97.41
73085;BME280;62974;49.460;10.892;2023-01-24T12:28:35;99527.31;;;1.75;96.50
73085;BME280;62974;49.460;10.892;2023-01-24T12:31:06;99524.34;;;1.67;96.31
73085;BME280;62974;49.460;10.892;2023-01-24T12:33:38;99526.88;;;1.68;97.09
73085;BME280;62974;49.460;10.892;2023-01-24T12:36:11;99533.00;;;1.69;97.24
73085;BME280;62974;49.460;10.892;2023-01-24T12:38:44;99529.41;;;1.70;97.13
73085;BME280;62974;49.460;10.892;2023-01-24T12:41:19;99533.00;;;1.69;97.97
73085;BME280;62974;49.460;10.892;2023-01-24T12:43:55;99520.63;;;1.69;98.03
73085;BME280;62974;49.460;10.892;2023-01-24T12:46:30;99529.94;;;1.62;97.94
73085;BME280;62974;49.460;10.892;2023-01-24T12:49:07;99523.59;;;1.77;97.31
73085;BME280;62974;49.460;10.892;2023-01-24T12:51:43;99533.78;;;1.71;97.91
73085;BME280;62974;49.460;10.892;2023-01-24T12:54:15;99536.09;;;1.75;97.92
73085;BME280;62974;49.460;10.892;2023-01-24T12:56:50;99531.44;;;1.66;97.97
73085;BME280;62974;49.460;10.892;2023-01-24T12:59:22;99534.25;;;1.63;97.93
73085;BME280;62974;49.460;10.892;2023-01-24T13:02:06;99532.09;;;1.82;97.75
73085;BME280;62974;49.460;10.892;2023-01-24T13:04:50;99534.84;;;1.81;97.27
73085;BME280;62974;49.460;10.892;2023-01-24T13:07:32;99527.50;;;1.72;97.71
73085;BME280;62974;49.460;10.892;2023-01-24T13:10:11;99536.47;;;1.57;97.61
73085;BME280;62974;49.460;10.892;2023-01-24T13:12:42;99533.09;;;1.55;97.91
73085;BME280;62974;49.460;10.892;2023-01-24T13:15:16;99536.16;;;1.61;98.43
73085;BME280;62974;49.460;10.892;2023-01-24T13:18:06;99536.91;;;1.63;98.76
73085;BME280;62974;49.460;10.892;2023-01-24T13:23:40;99542.41;;;1.60;98.91
73085;BME280;62974;49.460;10.892;2023-01-24T13:26:37;99548.63;;;1.47;99.33
73085;BME280;62974;49.460;10.892;2023-01-24T13:29:23;99546.63;;;1.50;98.98
73085;BME280;62974;49.460;10.892;2023-01-24T13:32:02;99541.63;;;1.46;99.50